Погода Какаоатанна неделю

Чьяпас, Мексика

27 февраля-04 марта
  • 27февраля
    Сегодня
    +21°
    +36°
    Практически безоблачно
    ВремяПогодаТемператураВлажностьДавлениеВетер, м/сВероятность осадков
    00:00Ясно и безоблачно+23°C70 %724 мм1.2 м/с2 %
    03:00Ясно и безоблачно+22°C69 %722 мм1.0 м/с2 %
    06:00Ясно и безоблачно+22°C57 %722 мм0.9 м/с2 %
    09:00Ясно и безоблачно+27°C44 %724 мм0.6 м/с2 %
    12:00Ясно и безоблачно+32°C29 %724 мм0.7 м/с2 %
    15:00Практически безоблачно+36°C31 %722 мм3.2 м/с2 %
    18:00Ясно и безоблачно+29°C56 %722 мм1.7 м/с2 %
    21:00Ясно и безоблачно+25°C69 %723 мм0.9 м/с2 %
  • 28февраля
    Среда
    +21°
    +36°
    Практически безоблачно
    ВремяПогодаТемператураВлажностьДавлениеВетер, м/сВероятность осадков
    00:00Ясно и безоблачно+23°C72 %723 мм1.1 м/с2 %
    03:00Ясно и безоблачно+22°C68 %722 мм0.9 м/с2 %
    06:00Ясно и безоблачно+22°C59 %722 мм1.1 м/с2 %
    09:00Ясно и безоблачно+28°C39 %724 мм0.2 м/с2 %
    12:00Ясно и безоблачно+33°C33 %724 мм0.6 м/с2 %
    15:00Практически безоблачно+35°C37 %722 мм3.2 м/с2 %
    18:00Ясно и безоблачно+29°C59 %723 мм1.0 м/с2 %
    21:00Ясно и безоблачно+26°C71 %724 мм1.4 м/с2 %
  • 29февраля
    Четверг
    +23°
    +36°
    Ясно и безоблачно
    ВремяПогодаТемператураВлажностьДавлениеВетер, м/сВероятность осадков
    00:00Ясно и безоблачно+24°C73 %724 мм1.0 м/с2 %
    03:00Ясно и безоблачно+23°C64 %723 мм0.7 м/с2 %
    06:00Ясно и безоблачно+22°C62 %723 мм1.1 м/с2 %
    09:00Ясно и безоблачно+28°C40 %725 мм0.2 м/с2 %
    12:00Ясно и безоблачно+33°C34 %724 мм1.1 м/с2 %
    15:00Ясно и безоблачно+35°C43 %723 мм3.4 м/с3 %
    18:00Практически безоблачно+30°C62 %723 мм1.3 м/с3 %
    21:00Практически безоблачно+26°C76 %724 мм1.0 м/с3 %
  • 01марта
    Пятница
    +23°
    +35°
    Облачно с прояснениями
    ВремяПогодаТемператураВлажностьДавлениеВетер, м/сВероятность осадков
    00:00Ясно и безоблачно+25°C75 %724 мм1.1 м/с4 %
    03:00Ясно и безоблачно+24°C65 %722 мм1.0 м/с2 %
    06:00Ясно и безоблачно+23°C62 %723 мм1.2 м/с2 %
    09:00Ясно и безоблачно+29°C44 %725 мм0.9 м/с2 %
    12:00Практически безоблачно+34°C33 %725 мм0.9 м/с2 %
    15:00Облачно с прояснениями+35°C41 %723 мм3.1 м/с10 %
    18:00Практически безоблачно+30°C57 %724 мм1.1 м/с12 %
    21:00Ясно и безоблачно+26°C75 %725 мм0.7 м/с2 %
Мы используем cookies
Соглашаюсь